createdAt,value
2018-05-04T00:00:38.310Z,17.7
2018-05-04T00:01:28.359Z,17.6
2018-05-04T00:02:18.686Z,17.6
2018-05-04T00:03:08.510Z,17.6
2018-05-04T00:03:58.561Z,17.6
2018-05-04T00:04:48.920Z,17.6
2018-05-04T00:05:39.003Z,17.6
2018-05-04T00:06:29.002Z,17.5
2018-05-04T00:07:19.082Z,17.4
2018-05-04T00:08:09.137Z,17.4
2018-05-04T00:08:58.959Z,17.4
2018-05-04T00:09:48.991Z,17.4
2018-05-04T00:10:39.371Z,17.4
2018-05-04T00:11:29.126Z,17.3
2018-05-04T00:12:19.188Z,17.3
2018-05-04T00:13:09.525Z,17.4
2018-05-04T00:13:59.053Z,17.3
2018-05-04T00:14:49.359Z,17.3
2018-05-04T00:15:39.707Z,17.3
2018-05-04T00:16:29.785Z,17.3
2018-05-04T00:17:19.843Z,17.2
2018-05-04T00:18:09.337Z,17.3
2018-05-04T00:18:59.685Z,17.2
2018-05-04T00:19:49.456Z,17.2
2018-05-04T00:20:40.106Z,17.2
2018-05-04T00:21:30.160Z,17.1
2018-05-04T00:22:19.965Z,17.2
2018-05-04T00:23:10.286Z,17.2
2018-05-04T00:24:00.338Z,17.1
2018-05-04T00:24:50.140Z,17.1
2018-05-04T00:25:40.488Z,17.1
2018-05-04T00:26:30.264Z,17.1
2018-05-04T00:27:20.637Z,17.1
2018-05-04T00:29:00.551Z,17.1
2018-05-04T00:29:50.509Z,17.1
2018-05-04T00:30:40.863Z,17.1
2018-05-04T00:31:30.993Z,17.1
2018-05-04T00:32:20.985Z,17.1
2018-05-04T00:33:11.051Z,17.1
2018-05-04T00:34:01.114Z,17.1
2018-05-04T00:34:50.603Z,17.1
2018-05-04T00:35:41.068Z,17.1
2018-05-04T00:36:31.305Z,17.1
2018-05-04T00:38:11.178Z,17.1
2018-05-04T00:39:01.243Z,17.1
2018-05-04T00:43:11.575Z,17.1
2018-05-04T00:44:01.595Z,17.1
2018-05-04T00:44:51.968Z,17.1
2018-05-04T00:45:41.469Z,17.1
2018-05-04T00:46:32.070Z,17.1
2018-05-04T00:47:22.128Z,17.2
2018-05-04T00:48:12.214Z,17.1
2018-05-04T00:49:01.750Z,17.1
2018-05-04T00:49:52.129Z,17.1
2018-05-04T00:50:41.835Z,17.1
2018-05-04T00:51:32.222Z,17.1
2018-05-04T00:52:22.561Z,17.1
2018-05-04T00:53:12.580Z,17.1
2018-05-04T00:54:02.114Z,17.1
2018-05-04T00:54:52.460Z,17.1
2018-05-04T00:55:42.782Z,17.1
2018-05-04T00:56:32.567Z,17.1
2018-05-04T00:57:22.337Z,17.1
2018-05-04T00:58:12.953Z,17.1
2018-05-04T00:59:02.455Z,17.1
2018-05-04T00:59:53.098Z,17.1
2018-05-04T01:00:43.156Z,17.1
2018-05-04T01:01:33.224Z,17.1
2018-05-04T01:02:23.292Z,17.2
2018-05-04T01:03:13.092Z,17.1
2018-05-04T01:04:02.863Z,17.2
2018-05-04T01:04:53.494Z,17.2
2018-05-04T01:05:43.278Z,17.3
2018-05-04T01:06:33.594Z,17.3
2018-05-04T01:07:23.112Z,17.3
2018-05-04T01:08:13.783Z,17.3
2018-05-04T01:09:03.799Z,17.3
2018-05-04T01:09:53.864Z,17.3
2018-05-04T01:10:43.956Z,17.3
2018-05-04T01:11:33.441Z,17.3
2018-05-04T01:12:24.069Z,17.3
2018-05-04T01:13:14.149Z,17.3
2018-05-04T01:14:03.687Z,17.3
2018-05-04T01:14:53.395Z,17.3
2018-05-04T01:15:44.412Z,17.3
2018-05-04T01:16:33.524Z,17.3
2018-05-04T01:17:24.445Z,17.3
2018-05-04T01:18:14.228Z,17.4
2018-05-04T01:19:04.311Z,17.3
2018-05-04T01:19:54.660Z,17.3
2018-05-04T01:20:44.699Z,17.3
2018-05-04T01:21:34.791Z,17.3
2018-05-04T01:22:24.813Z,17.3
2018-05-04T01:23:14.893Z,17.3
2018-05-04T01:24:04.952Z,17.3
2018-05-04T01:24:55.006Z,17.3
2018-05-04T01:25:44.791Z,17.3
2018-05-04T01:26:35.142Z,17.4
2018-05-04T01:27:25.188Z,17.3
2018-05-04T01:28:15.266Z,17.3
2018-05-04T01:29:05.309Z,17.3
2018-05-04T01:29:54.868Z,17.3
2018-05-04T01:30:45.176Z,17.3
2018-05-04T01:31:35.230Z,17.3
2018-05-04T01:32:25.589Z,17.2
2018-05-04T01:33:15.444Z,17.2
2018-05-04T01:34:05.162Z,17.1
2018-05-04T01:34:55.476Z,17.1
2018-05-04T01:35:45.838Z,17.1
2018-05-04T01:36:35.643Z,17.1
2018-05-04T01:37:25.689Z,17.1
2018-05-04T01:38:16.062Z,17.1
2018-05-04T01:39:06.087Z,17.1
2018-05-04T01:39:56.132Z,17.1
2018-05-04T01:40:45.372Z,17.1
2018-05-04T01:41:36.294Z,17.1
2018-05-04T01:42:26.352Z,17.1
2018-05-04T01:43:15.862Z,17.1
2018-05-04T01:44:55.973Z,16.9
2018-05-04T01:45:46.592Z,16.9
2018-05-04T01:46:36.667Z,16.9
2018-05-04T01:47:26.735Z,16.9
2018-05-04T01:48:16.515Z,16.8
2018-05-04T01:49:06.579Z,16.8
2018-05-04T01:49:56.636Z,16.9
2018-05-04T01:50:46.982Z,16.9
2018-05-04T01:51:36.480Z,16.8
2018-05-04T01:52:26.840Z,16.8
2018-05-04T01:53:16.326Z,16.9
2018-05-04T01:54:06.997Z,16.9
2018-05-04T01:54:57.322Z,16.9
2018-05-04T01:55:47.075Z,16.9
2018-05-04T01:59:07.634Z,16.9
2018-05-04T01:59:57.679Z,16.9
2018-05-04T02:04:57.875Z,16.9
2018-05-04T02:05:47.850Z,16.9
2018-05-04T02:06:37.910Z,16.9
2018-05-04T02:09:57.620Z,16.9
2018-05-04T02:10:48.303Z,16.9
2018-05-04T02:13:18.756Z,16.9
2018-05-04T02:14:08.764Z,16.9
2018-05-04T02:14:58.830Z,16.9
2018-05-04T02:15:48.640Z,16.9
2018-05-04T02:16:38.698Z,16.9
2018-05-04T02:18:18.822Z,16.9
2018-05-04T02:19:09.140Z,16.9
2018-05-04T02:19:58.929Z,16.9
2018-05-04T02:20:49.291Z,16.9
2018-05-04T02:21:39.324Z,16.9
2018-05-04T02:22:29.125Z,16.9
2018-05-04T02:23:19.220Z,16.9
2018-05-04T02:24:08.967Z,16.9
2018-05-04T02:24:59.606Z,16.9
2018-05-04T02:25:49.127Z,16.9
2018-05-04T02:26:39.441Z,16.9
2018-05-04T02:27:29.800Z,16.8
2018-05-04T02:28:19.307Z,16.8
2018-05-04T02:29:09.998Z,16.8
2018-05-04T02:29:59.981Z,16.8
2018-05-04T02:30:50.096Z,16.8
2018-05-04T02:31:40.129Z,16.8
2018-05-04T02:32:30.180Z,16.8
2018-05-04T02:33:19.698Z,16.8
2018-05-04T02:34:09.744Z,16.8
2018-05-04T02:35:00.380Z,16.8
2018-05-04T02:35:50.174Z,16.8
2018-05-04T02:36:40.223Z,16.8
2018-05-04T02:37:30.583Z,16.8
2018-05-04T02:38:20.671Z,16.8
2018-05-04T02:39:10.708Z,16.8
2018-05-04T02:40:00.763Z,16.8
2018-05-04T02:40:50.606Z,16.8
2018-05-04T02:41:40.616Z,16.7
2018-05-04T02:42:30.944Z,16.8
2018-05-04T02:43:21.009Z,16.8
2018-05-04T02:44:10.787Z,16.8
2018-05-04T02:45:00.865Z,16.8
2018-05-04T02:45:50.959Z,16.8
2018-05-04T02:46:41.290Z,16.7
2018-05-04T02:47:31.342Z,16.8
2018-05-04T02:48:21.097Z,16.8
2018-05-04T02:49:11.437Z,16.8
2018-05-04T02:50:01.244Z,16.8
2018-05-04T02:50:51.304Z,16.7
2018-05-04T02:51:41.418Z,16.7
2018-05-04T02:52:31.433Z,16.7
2018-05-04T02:53:21.206Z,16.7
2018-05-04T02:54:11.838Z,16.6
2018-05-04T02:55:01.913Z,16.6
2018-05-04T02:55:51.701Z,16.6
2018-05-04T02:56:42.030Z,16.6
2018-05-04T02:57:31.814Z,16.6
2018-05-04T02:58:22.215Z,16.7
2018-05-04T02:59:12.020Z,16.6
2018-05-04T03:00:01.733Z,16.6
2018-05-04T03:00:52.071Z,16.6
2018-05-04T03:01:42.408Z,16.6
2018-05-04T03:02:32.188Z,16.6
2018-05-04T03:03:22.553Z,16.6
2018-05-04T03:04:12.629Z,16.6
2018-05-04T03:05:02.715Z,16.6
2018-05-04T03:05:52.730Z,16.6
2018-05-04T03:06:42.539Z,16.6
2018-05-04T03:07:32.859Z,16.6
2018-05-04T03:08:22.917Z,16.6
2018-05-04T03:09:13.011Z,16.6
2018-05-04T03:10:03.073Z,16.6
2018-05-04T03:10:52.861Z,16.6
2018-05-04T03:11:43.168Z,16.6
2018-05-04T03:12:32.682Z,16.6
2018-05-04T03:13:22.778Z,16.6
2018-05-04T03:14:13.431Z,16.6
2018-05-04T03:15:03.419Z,16.6
2018-05-04T03:15:52.640Z,16.6
2018-05-04T03:16:43.574Z,16.6
2018-05-04T03:17:33.600Z,16.6
2018-05-04T03:18:23.443Z,16.6
2018-05-04T03:19:13.743Z,16.6
2018-05-04T03:20:03.804Z,16.5
2018-05-04T03:20:53.592Z,16.6
2018-05-04T03:21:43.957Z,16.6
2018-05-04T03:22:34.009Z,16.6
2018-05-04T03:23:23.867Z,16.6
2018-05-04T03:24:13.858Z,16.6
2018-05-04T03:25:04.179Z,16.6
2018-05-04T03:25:54.264Z,16.6
2018-05-04T03:26:44.064Z,16.6
2018-05-04T03:27:34.385Z,16.6
2018-05-04T03:28:24.133Z,16.6
2018-05-04T03:29:14.561Z,16.6
2018-05-04T03:30:04.299Z,16.6
2018-05-04T03:30:54.366Z,16.5
2018-05-04T03:31:44.441Z,16.6
2018-05-04T03:32:34.520Z,16.6
2018-05-04T03:33:24.531Z,16.6
2018-05-04T03:34:14.300Z,16.5
2018-05-04T03:35:04.959Z,16.6
2018-05-04T03:35:55.015Z,16.6
2018-05-04T03:36:44.787Z,16.6
2018-05-04T03:37:35.172Z,16.6
2018-05-04T03:38:25.320Z,16.6
2018-05-04T03:39:15.027Z,16.6
2018-05-04T03:40:05.357Z,16.7
2018-05-04T03:40:55.404Z,16.7
2018-05-04T03:41:45.227Z,16.7
2018-05-04T03:42:34.940Z,16.6
2018-05-04T03:43:25.587Z,16.7
2018-05-04T03:44:15.354Z,16.7
2018-05-04T03:45:05.180Z,16.7
2018-05-04T03:45:55.517Z,16.6
2018-05-04T03:46:45.845Z,16.6
2018-05-04T03:47:35.907Z,16.6
2018-05-04T03:48:25.978Z,16.6
2018-05-04T03:49:15.740Z,16.6
2018-05-04T03:50:05.563Z,16.6
2018-05-04T03:50:56.163Z,16.6
2018-05-04T03:51:45.669Z,16.5
2018-05-04T03:52:36.292Z,16.5
2018-05-04T03:53:26.346Z,16.5
2018-05-04T03:54:15.855Z,16.5
2018-05-04T03:55:06.506Z,16.5
2018-05-04T03:55:55.711Z,16.5
2018-05-04T03:56:46.340Z,16.5
2018-05-04T03:57:36.120Z,16.5
2018-05-04T03:58:25.873Z,16.4
2018-05-04T03:59:16.514Z,16.5
2018-05-04T04:00:06.594Z,16.5
2018-05-04T04:00:56.926Z,16.5
2018-05-04T04:01:46.720Z,16.6
2018-05-04T04:02:36.950Z,16.5
2018-05-04T04:03:26.890Z,16.6
2018-05-04T04:04:16.647Z,16.6
2018-05-04T04:05:06.980Z,16.6
2018-05-04T04:05:57.346Z,16.6
2018-05-04T04:06:47.364Z,16.6
2018-05-04T04:07:36.881Z,16.6
2018-05-04T04:08:27.246Z,16.6
2018-05-04T04:09:17.013Z,16.6
2018-05-04T04:10:07.357Z,16.6
2018-05-04T04:10:57.404Z,16.7
2018-05-04T04:11:47.193Z,16.7
2018-05-04T04:12:37.896Z,16.7
2018-05-04T04:13:27.872Z,16.7
2018-05-04T04:14:17.668Z,16.7
2018-05-04T04:15:08.016Z,16.7
2018-05-04T04:15:58.117Z,16.8
2018-05-04T04:16:48.147Z,16.8
2018-05-04T04:17:38.193Z,16.8
2018-05-04T04:18:28.271Z,16.8
2018-05-04T04:19:17.749Z,16.8
2018-05-04T04:20:08.406Z,16.8
2018-05-04T04:20:58.451Z,16.8
2018-05-04T04:21:48.299Z,16.8
2018-05-04T04:22:38.601Z,16.8
2018-05-04T04:23:28.639Z,16.8
2018-05-04T04:24:18.446Z,16.9
2018-05-04T04:25:08.783Z,16.8
2018-05-04T04:25:58.541Z,16.8
2018-05-04T04:26:48.695Z,16.9
2018-05-04T04:27:38.509Z,16.9
2018-05-04T04:28:29.031Z,16.9
2018-05-04T04:29:18.822Z,16.9
2018-05-04T04:30:08.597Z,16.9
2018-05-04T04:30:59.208Z,16.9
2018-05-04T04:39:19.593Z,17.1
2018-05-04T04:40:09.944Z,17.1
2018-05-04T04:40:59.966Z,17.1
2018-05-04T04:41:50.061Z,17.1
2018-05-04T04:42:39.848Z,17.1
2018-05-04T04:43:29.715Z,17.1
2018-05-04T04:44:19.702Z,17.1
2018-05-04T04:45:09.762Z,17.1
2018-05-04T04:45:59.824Z,17.1
2018-05-04T04:46:49.968Z,17.1
2018-05-04T04:47:40.003Z,17.1
2018-05-04T04:48:30.656Z,17.1
2018-05-04T04:49:20.332Z,17.1
2018-05-04T04:50:10.670Z,17.1
2018-05-04T04:51:00.442Z,17.1
2018-05-04T04:51:50.814Z,17.1
2018-05-04T04:52:40.381Z,17.1
2018-05-04T04:53:30.650Z,17.1
2018-05-04T04:54:21.020Z,17.1
2018-05-04T04:55:10.487Z,17.2
2018-05-04T04:56:01.134Z,17.2
2018-05-04T04:56:50.904Z,17.2
2018-05-04T04:57:40.979Z,17.2
2018-05-04T04:58:31.065Z,17.2
2018-05-04T04:59:21.428Z,17.2
2018-05-04T05:00:11.441Z,17.2
2018-05-04T05:01:01.515Z,17.2
2018-05-04T05:01:51.761Z,17.3
2018-05-04T05:02:41.644Z,17.3
2018-05-04T05:03:31.431Z,17.3
2018-05-04T05:04:21.490Z,17.3
2018-05-04T05:05:11.552Z,17.3
2018-05-04T05:06:01.609Z,17.3
2018-05-04T05:06:51.644Z,17.3
2018-05-04T05:07:41.995Z,17.3
2018-05-04T05:08:32.066Z,17.3
2018-05-04T05:09:21.846Z,17.3
2018-05-04T05:10:11.646Z,17.3
2018-05-04T05:11:02.356Z,17.3
2018-05-04T05:11:52.044Z,17.3
2018-05-04T05:12:42.461Z,17.3
2018-05-04T05:13:33.116Z,17.3
2018-05-04T05:14:22.518Z,17.4
2018-05-04T05:15:12.300Z,17.4
2018-05-04T05:16:02.638Z,17.4
2018-05-04T05:16:52.420Z,17.4
2018-05-04T05:17:42.477Z,17.4
2018-05-04T05:18:32.556Z,17.4
2018-05-04T05:19:22.891Z,17.4
2018-05-04T05:20:12.671Z,17.5
2018-05-04T05:21:03.089Z,17.5
2018-05-04T05:21:53.551Z,17.5
2018-05-04T05:22:42.884Z,17.5
2018-05-04T05:23:33.011Z,17.5
2018-05-04T05:24:23.301Z,17.6
2018-05-04T05:25:13.079Z,17.6
2018-05-04T05:26:03.187Z,17.6
2018-05-04T05:26:53.183Z,17.6
2018-05-04T05:27:43.277Z,17.8
2018-05-04T05:28:33.627Z,17.8
2018-05-04T05:29:23.468Z,17.8
2018-05-04T05:30:13.779Z,17.7
2018-05-04T05:31:03.799Z,17.7
2018-05-04T05:31:53.573Z,17.7
2018-05-04T05:32:43.368Z,17.7
2018-05-04T05:33:33.699Z,17.7
2018-05-04T05:34:24.053Z,17.6
2018-05-04T05:35:14.147Z,17.6
2018-05-04T05:36:04.188Z,17.7
2018-05-04T05:36:53.664Z,17.6
2018-05-04T05:37:44.317Z,17.6
2018-05-04T05:38:33.805Z,17.6
2018-05-04T05:39:23.885Z,17.7
2018-05-04T05:40:14.532Z,17.8
2018-05-04T05:41:04.585Z,17.8
2018-05-04T05:41:54.364Z,17.8
2018-05-04T05:42:44.708Z,17.8
2018-05-04T05:43:34.767Z,17.8
2018-05-04T05:44:24.267Z,17.9
2018-05-04T05:45:14.603Z,17.9
2018-05-04T05:46:04.700Z,17.9
2018-05-04T05:46:54.727Z,17.9
2018-05-04T05:47:44.809Z,18.1
2018-05-04T05:48:35.169Z,18.1
2018-05-04T05:49:25.241Z,18.1
2018-05-04T05:50:15.285Z,18.1
2018-05-04T05:51:04.473Z,18.1
2018-05-04T05:51:55.315Z,18.1
2018-05-04T05:52:45.487Z,18.2
2018-05-04T05:53:34.775Z,18.2
2018-05-04T05:54:25.293Z,18.2
2018-05-04T05:55:15.652Z,18.2
2018-05-04T05:56:05.434Z,18.3
2018-05-04T05:56:55.493Z,18.3
2018-05-04T05:57:45.813Z,18.3
2018-05-04T05:58:35.896Z,18.4
2018-05-04T05:59:25.698Z,18.4
2018-05-04T06:00:16.013Z,18.5
2018-05-04T06:01:05.845Z,18.6
2018-05-04T06:01:56.217Z,18.6
2018-05-04T06:02:45.680Z,18.6
2018-05-04T06:05:24.494Z,18.8
2018-05-04T06:06:25.941Z,18.6
2018-05-04T06:08:06.073Z,18.8
2018-05-04T06:08:56.096Z,18.8
2018-05-04T06:09:45.970Z,18.8
2018-05-04T06:10:36.243Z,18.9
2018-05-04T06:11:26.138Z,19.1
2018-05-04T06:12:16.103Z,19
2018-05-04T06:13:06.475Z,19.1
2018-05-04T06:13:56.499Z,19
2018-05-04T06:14:46.599Z,19.1
2018-05-04T06:15:36.665Z,19.1
2018-05-04T06:16:26.699Z,19.1
2018-05-04T06:17:16.793Z,19.3
2018-05-04T06:18:06.596Z,19.3
2018-05-04T06:18:56.907Z,19.3
2018-05-04T06:19:46.985Z,19.2
2018-05-04T06:20:37.022Z,19.2
2018-05-04T06:21:27.095Z,19.2
2018-05-04T06:22:16.899Z,19.2
2018-05-04T06:23:07.189Z,19.3
2018-05-04T06:23:57.266Z,19.3
2018-05-04T06:24:46.872Z,19.4
2018-05-04T06:25:36.851Z,19.4
2018-05-04T06:26:26.892Z,19.5
2018-05-04T06:27:17.527Z,19.4
2018-05-04T06:28:07.667Z,19.6
2018-05-04T06:28:57.666Z,19.6
2018-05-04T06:29:47.459Z,19.8
2018-05-04T06:30:37.777Z,19.8
2018-05-04T06:31:27.867Z,19.7
2018-05-04T06:32:17.638Z,19.6
2018-05-04T06:33:07.694Z,19.8
2018-05-04T06:33:58.241Z,19.7
2018-05-04T06:34:48.102Z,19.7
2018-05-04T06:35:38.186Z,19.8
2018-05-04T06:36:27.985Z,19.7
2018-05-04T06:37:18.305Z,19.7
2018-05-04T06:38:08.413Z,19.7
2018-05-04T06:38:57.853Z,19.6
2018-05-04T06:39:48.538Z,19.6
2018-05-04T06:40:38.629Z,19.7
2018-05-04T06:41:28.621Z,19.8
2018-05-04T06:42:18.711Z,19.8
2018-05-04T06:43:08.736Z,19.9
2018-05-04T06:43:58.555Z,20.1
2018-05-04T06:44:48.293Z,20.2
2018-05-04T06:45:38.733Z,20.1
2018-05-04T06:46:29.018Z,20.2
2018-05-04T06:47:18.495Z,20.3
2018-05-04T06:48:09.163Z,20.2
2018-05-04T06:48:59.185Z,20.3
2018-05-04T06:49:48.980Z,20.4
2018-05-04T06:50:39.308Z,20.6
2018-05-04T06:51:29.402Z,20.8
2018-05-04T06:52:19.268Z,20.8
2018-05-04T06:53:09.129Z,20.8
2018-05-04T06:53:59.586Z,20.9
2018-05-04T06:54:49.093Z,20.8
2018-05-04T06:55:39.761Z,20.9
2018-05-04T06:56:29.552Z,20.7
2018-05-04T06:57:19.552Z,20.8
2018-05-04T06:58:09.612Z,21
2018-05-04T06:58:59.707Z,21
2018-05-04T06:59:49.454Z,20.9
2018-05-04T07:00:40.133Z,20.9
2018-05-04T07:01:30.151Z,20.9
2018-05-04T07:02:19.958Z,20.9
2018-05-04T07:03:09.714Z,20.8
2018-05-04T07:04:00.387Z,20.8
2018-05-04T07:04:49.878Z,20.7
2018-05-04T07:05:40.459Z,20.8
2018-05-04T07:06:30.524Z,20.6
2018-05-04T07:07:20.106Z,20.7
2018-05-04T07:08:10.665Z,20.8
2018-05-04T07:09:01.025Z,20.6
2018-05-04T07:09:50.796Z,20.6
2018-05-04T07:10:40.579Z,20.7
2018-05-04T07:11:30.643Z,20.6
2018-05-04T07:12:20.970Z,20.6
2018-05-04T07:13:10.764Z,20.5
2018-05-04T07:14:00.550Z,20.6
2018-05-04T07:14:50.915Z,20.5
2018-05-04T07:15:40.676Z,20.4
2018-05-04T07:16:31.372Z,20.6
2018-05-04T07:17:21.451Z,20.8
2018-05-04T07:18:11.422Z,20.9
2018-05-04T07:19:01.208Z,20.9
2018-05-04T07:19:51.558Z,20.9
2018-05-04T07:20:41.651Z,20.9
2018-05-04T07:21:31.684Z,21.2
2018-05-04T07:22:21.483Z,21.3
2018-05-04T07:24:01.899Z,21.1
2018-05-04T07:24:51.938Z,21
2018-05-04T07:25:42.017Z,21.1
2018-05-04T07:27:21.310Z,21.3
2018-05-04T07:28:11.944Z,21.4
2018-05-04T07:29:02.278Z,21.3
2018-05-04T07:29:52.429Z,21.2
2018-05-04T07:30:42.483Z,21.2
2018-05-04T07:31:32.467Z,21.3
2018-05-04T07:32:22.545Z,21.3
2018-05-04T07:33:12.060Z,21.4
2018-05-04T07:34:02.386Z,21.6
2018-05-04T07:34:52.769Z,21.8
2018-05-04T07:35:42.791Z,21.9
2018-05-04T07:36:32.287Z,21.9
2018-05-04T07:37:22.944Z,21.8
2018-05-04T07:38:12.975Z,21.6
2018-05-04T07:39:02.504Z,21.7
2018-05-04T07:39:52.937Z,21.9
2018-05-04T07:40:43.168Z,22.1
2018-05-04T07:41:33.242Z,22.3
2018-05-04T07:42:22.740Z,22.3
2018-05-04T07:43:13.861Z,22.1
2018-05-04T07:44:03.180Z,22.1
2018-05-04T07:44:52.952Z,22.1
2018-05-04T07:45:43.006Z,22.1
2018-05-04T07:46:33.635Z,21.8
2018-05-04T07:47:23.695Z,21.7
2018-05-04T07:48:13.497Z,21.7
2018-05-04T07:49:03.646Z,21.7
2018-05-04T07:49:53.887Z,21.9
2018-05-04T07:50:43.963Z,22.1
2018-05-04T07:51:33.766Z,22.1
2018-05-04T07:52:24.057Z,22.2
2018-05-04T07:53:14.150Z,22.2
2018-05-04T07:54:03.704Z,22.4
2018-05-04T07:54:53.725Z,22.1
2018-05-04T07:55:44.351Z,21.8
2018-05-04T07:56:34.129Z,22.1
2018-05-04T07:57:24.203Z,22.1
2018-05-04T07:58:13.961Z,22.2
2018-05-04T07:59:04.597Z,22.3
2018-05-04T07:59:54.656Z,22.4
2018-05-04T08:00:44.729Z,22.6
2018-05-04T08:01:34.514Z,22.6
2018-05-04T08:02:24.850Z,22.4
2018-05-04T08:03:14.901Z,22.2
2018-05-04T08:04:04.991Z,21.9
2018-05-04T08:04:55.030Z,21.9
2018-05-04T08:05:44.546Z,21.8
2018-05-04T08:06:35.193Z,22.1
2018-05-04T08:07:24.965Z,22.4
2018-05-04T08:08:15.009Z,22.2
2018-05-04T08:09:05.118Z,21.8
2018-05-04T08:09:55.453Z,21.9
2018-05-04T08:10:45.209Z,22.1
2018-05-04T08:11:35.373Z,22.2
2018-05-04T08:12:25.059Z,22.1
2018-05-04T08:13:15.121Z,22.2
2018-05-04T08:14:05.485Z,22.5
2018-05-04T08:14:55.383Z,21.9
2018-05-04T08:15:45.626Z,21.6
2018-05-04T08:16:35.713Z,21.9
2018-05-04T08:17:25.759Z,21.9
2018-05-04T08:18:15.816Z,22.2
2018-05-04T08:19:05.319Z,22.1
2018-05-04T08:19:55.921Z,22.1
2018-05-04T08:20:46.273Z,22.3
2018-05-04T08:21:35.770Z,22.2
2018-05-04T08:22:26.135Z,22
2018-05-04T08:23:15.630Z,21.9
2018-05-04T08:24:06.538Z,22.2
2018-05-04T08:24:56.316Z,22.6
2018-05-04T08:25:46.678Z,22.4
2018-05-04T08:26:36.742Z,22.4
2018-05-04T08:27:27.299Z,22.4
2018-05-04T08:28:15.723Z,22.4
2018-05-04T08:29:06.944Z,22.5
2018-05-04T08:29:56.432Z,22.4
2018-05-04T08:30:46.796Z,22.6
2018-05-04T08:31:37.204Z,22.8
2018-05-04T08:32:27.192Z,22.8
2018-05-04T08:33:17.071Z,22.9
2018-05-04T08:34:06.471Z,23.1
2018-05-04T08:34:57.403Z,23.2
2018-05-04T08:35:47.177Z,22.9
2018-05-04T08:36:36.661Z,22.7
2018-05-04T08:37:27.580Z,22.9
2018-05-04T08:38:17.358Z,23
2018-05-04T08:39:06.660Z,23
2018-05-04T08:39:56.996Z,23.2
2018-05-04T08:40:48.062Z,23.1
2018-05-04T08:41:37.998Z,22.9
2018-05-04T08:42:27.935Z,23.4
2018-05-04T08:43:18.730Z,23.3
2018-05-04T08:44:08.083Z,23
2018-05-04T08:44:57.883Z,23.2
2018-05-04T08:45:48.215Z,23
2018-05-04T08:46:38.007Z,22.9
2018-05-04T08:47:28.068Z,23
2018-05-04T08:48:19.506Z,22.9
2018-05-04T08:49:07.965Z,22.9
2018-05-04T08:49:58.534Z,22.6
2018-05-04T08:50:48.773Z,22.4
2018-05-04T08:51:38.657Z,22.6
2018-05-04T08:52:28.451Z,23
2018-05-04T08:53:18.516Z,23.2
2018-05-04T08:54:08.577Z,23.3
2018-05-04T08:54:58.932Z,22.8
2018-05-04T08:55:48.707Z,22.9
2018-05-04T08:56:38.781Z,23.1
2018-05-04T08:57:29.352Z,23.2
2018-05-04T08:58:19.190Z,22.9
2018-05-04T08:59:09.260Z,22.9
2018-05-04T08:59:59.327Z,22.8
2018-05-04T09:00:49.396Z,22.9
2018-05-04T09:01:39.421Z,22.9
2018-05-04T09:02:29.485Z,22.8
2018-05-04T09:03:19.296Z,22.8
2018-05-04T09:04:09.664Z,22.7
2018-05-04T09:04:59.708Z,22.6
2018-05-04T09:05:49.501Z,22.7
2018-05-04T09:06:39.852Z,22.6
2018-05-04T09:07:29.712Z,23.3
2018-05-04T09:08:19.992Z,23.3
2018-05-04T09:09:09.743Z,23.2
2018-05-04T09:10:00.115Z,23.4
2018-05-04T09:10:50.154Z,23.5
2018-05-04T09:11:40.198Z,23.6
2018-05-04T09:12:30.020Z,23.5
2018-05-04T09:13:20.094Z,23.4
2018-05-04T09:14:09.864Z,23.6
2018-05-04T09:15:00.482Z,23.5
2018-05-04T09:15:50.563Z,23.5
2018-05-04T09:16:40.627Z,23.4
2018-05-04T09:17:30.397Z,23.4
2018-05-04T09:18:20.484Z,23.4
2018-05-04T09:19:10.532Z,23.7
2018-05-04T09:20:00.886Z,23.8
2018-05-04T09:20:50.667Z,23.7
2018-05-04T09:21:40.716Z,23.7
2018-05-04T09:22:30.807Z,23.9
2018-05-04T09:23:21.127Z,24.2
2018-05-04T09:24:11.212Z,24.6
2018-05-04T09:25:00.984Z,24.3
2018-05-04T09:25:51.307Z,24.4
2018-05-04T09:26:40.832Z,24.8
2018-05-04T09:27:31.190Z,24.9
2018-05-04T09:28:20.972Z,25.3
2018-05-04T09:29:11.323Z,25.6
2018-05-04T09:30:01.385Z,25.3
2018-05-04T09:30:52.305Z,25.4
2018-05-04T09:31:41.513Z,25.3
2018-05-04T09:32:31.579Z,25.6
2018-05-04T09:33:21.913Z,25.8
2018-05-04T09:34:11.712Z,25.7
2018-05-04T09:35:02.079Z,25.5
2018-05-04T09:35:51.343Z,25.4
2018-05-04T09:36:41.918Z,25.5
2018-05-04T09:37:31.988Z,25.8
2018-05-04T09:38:22.046Z,25.4
2018-05-04T09:39:12.369Z,25.7
2018-05-04T09:40:02.466Z,25.5
2018-05-04T09:40:52.505Z,25.6
2018-05-04T09:41:41.618Z,25.9
2018-05-04T09:42:32.150Z,25.9
2018-05-04T09:43:22.886Z,25.4
2018-05-04T09:44:12.765Z,25.2
2018-05-04T09:45:02.866Z,25
2018-05-04T09:45:52.900Z,24.9
2018-05-04T09:46:42.698Z,24.6
2018-05-04T09:47:33.067Z,25
2018-05-04T09:48:23.097Z,25.6
2018-05-04T09:49:13.404Z,25.5
2018-05-04T09:50:03.235Z,25.3
2018-05-04T09:50:53.296Z,25.6
2018-05-04T09:51:43.347Z,25.3
2018-05-04T09:52:33.427Z,25.5
2018-05-04T09:53:23.013Z,25.3
2018-05-04T09:54:13.003Z,25.1
2018-05-04T09:55:03.626Z,25.5
2018-05-04T09:55:53.933Z,25.4
2018-05-04T09:56:43.762Z,25.4
2018-05-04T09:57:33.547Z,25.3
2018-05-04T09:58:23.586Z,25.2
2018-05-04T09:59:13.667Z,25
2018-05-04T10:00:04.024Z,24.8
2018-05-04T10:00:54.109Z,24.8
2018-05-04T10:01:44.203Z,25.1
2018-05-04T10:02:34.206Z,25.5
2018-05-04T10:03:24.284Z,25.5
2018-05-04T10:04:14.354Z,25.1
2018-05-04T10:05:04.435Z,25.2
2018-05-04T10:05:54.228Z,25.4
2018-05-04T10:06:44.276Z,25.3
2018-05-04T10:07:34.626Z,25.3
2018-05-04T10:08:24.403Z,25.1
2018-05-04T10:09:14.697Z,25.3
2018-05-04T10:10:04.827Z,25.3
2018-05-04T10:10:54.601Z,25.1
2018-05-04T10:11:44.641Z,24.9
2018-05-04T10:12:35.017Z,25.1
2018-05-04T10:13:25.070Z,25.3
2018-05-04T10:14:15.131Z,25.7
2018-05-04T10:15:05.020Z,25.6
2018-05-04T10:15:54.691Z,25.7
2018-05-04T10:16:45.331Z,25.4
2018-05-04T10:17:35.429Z,25.3
2018-05-04T10:18:24.911Z,25.1
2018-05-04T10:19:15.530Z,25
2018-05-04T10:20:05.354Z,25.3
2018-05-04T10:20:55.685Z,25.4
2018-05-04T10:21:45.730Z,25.3
2018-05-04T10:22:35.509Z,25.1
2018-05-04T10:23:25.366Z,25.2
2018-05-04T10:24:14.889Z,25.4
2018-05-04T10:25:05.982Z,25.2
2018-05-04T10:25:55.770Z,25.1
2018-05-04T10:26:45.593Z,25.3
2018-05-04T10:27:35.893Z,25.4
2018-05-04T10:28:25.977Z,25.6
2018-05-04T10:29:16.116Z,25.5
2018-05-04T10:30:06.397Z,26
2018-05-04T10:30:56.852Z,26.3
2018-05-04T10:31:46.489Z,26
2018-05-04T10:32:35.745Z,25.4
2018-05-04T10:33:26.624Z,25.4
2018-05-04T10:34:16.416Z,25.3
2018-05-04T10:35:06.815Z,25.5
2018-05-04T10:35:56.939Z,25.2
2018-05-04T10:36:46.606Z,25.4
2018-05-04T10:37:36.661Z,25.7
2018-05-04T10:38:27.510Z,25.5
2018-05-04T10:39:17.084Z,25.6
2018-05-04T10:40:06.888Z,25.3
2018-05-04T10:40:56.963Z,25.4
2018-05-04T10:41:47.296Z,25.8
2018-05-04T10:42:37.374Z,25.7
2018-05-04T10:43:27.181Z,25.7
2018-05-04T10:44:16.947Z,25.8
2018-05-04T10:45:08.018Z,26
2018-05-04T10:45:57.620Z,25.9
2018-05-04T10:46:47.687Z,25.8
2018-05-04T10:47:37.755Z,25.8
2018-05-04T10:48:27.551Z,25.4
2018-05-04T10:49:17.420Z,25.6
2018-05-04T10:50:07.741Z,25.8
2018-05-04T10:50:57.562Z,25.2
2018-05-04T10:51:47.520Z,24.9
2018-05-04T10:52:38.154Z,25.1
2018-05-04T10:53:28.226Z,25
2018-05-04T10:54:18.011Z,24.8
2018-05-04T10:55:08.356Z,24.9
2018-05-04T10:55:58.544Z,24.9
2018-05-04T10:56:48.549Z,24.9
2018-05-04T10:57:38.059Z,24.9
2018-05-04T10:58:28.044Z,25.1
2018-05-04T10:59:18.665Z,25.2
2018-05-04T11:00:08.739Z,25.4
2018-05-04T11:00:58.243Z,25.3
2018-05-04T11:01:48.872Z,25.6
2018-05-04T11:02:38.652Z,25.7
2018-05-04T11:03:28.732Z,25.9
2018-05-04T11:04:19.093Z,25.7
2018-05-04T11:05:09.148Z,26.1
2018-05-04T11:05:59.218Z,26.4
2018-05-04T11:06:49.296Z,26.7
2018-05-04T11:07:39.342Z,26.3
2018-05-04T11:08:28.845Z,26.5
2018-05-04T11:09:19.487Z,26.1
2018-05-04T11:10:09.523Z,26.1
2018-05-04T11:10:59.596Z,26.3
2018-05-04T11:11:48.817Z,26.1
2018-05-04T11:12:39.187Z,26.2
2018-05-04T11:13:29.766Z,26.1
2018-05-04T11:14:19.871Z,25.9
2018-05-04T11:15:09.909Z,25.9
2018-05-04T11:15:59.989Z,26.6
2018-05-04T11:16:50.036Z,26.9
2018-05-04T11:17:40.116Z,26.6
2018-05-04T11:18:29.896Z,26.7
2018-05-04T11:19:20.208Z,27.1
2018-05-04T11:20:09.752Z,26.9
2018-05-04T11:21:00.388Z,26.6
2018-05-04T11:21:50.183Z,26.3
2018-05-04T11:22:40.220Z,26.8
2018-05-04T11:23:30.558Z,26.8
2018-05-04T11:24:20.639Z,26.9
2018-05-04T11:25:10.703Z,26.8
2018-05-04T11:26:00.769Z,26.6
2018-05-04T11:26:50.558Z,26.3
2018-05-04T11:27:40.618Z,26
2018-05-04T11:28:30.743Z,25.8
2018-05-04T11:29:21.061Z,25.9
2018-05-04T11:30:11.110Z,26.1
2018-05-04T11:31:01.358Z,26.3
2018-05-04T11:31:51.011Z,26.4
2018-05-04T11:32:41.303Z,26.6
2018-05-04T11:33:31.183Z,26.3
2018-05-04T11:34:21.433Z,26
2018-05-04T11:35:10.960Z,25.9
2018-05-04T11:36:01.567Z,25.9
2018-05-04T11:36:51.367Z,25.8